createdAt,value
2019-06-15T00:07:48.175Z,24.8
2019-06-15T00:17:48.518Z,24.8
2019-06-15T00:27:47.600Z,24.8
2019-06-15T00:37:46.838Z,24.7
2019-06-15T00:47:46.074Z,24.7
2019-06-15T00:57:45.316Z,24.7
2019-06-15T01:07:44.554Z,24.6
2019-06-15T01:17:43.792Z,24.6
2019-06-15T01:27:43.024Z,24.6
2019-06-15T01:37:42.272Z,24.5
2019-06-15T01:47:41.506Z,24.4
2019-06-15T01:57:40.743Z,24.4
2019-06-15T02:07:39.976Z,24.4
2019-06-15T02:17:39.212Z,24.3
2019-06-15T02:27:38.449Z,24.3
2019-06-15T02:37:37.689Z,24.2
2019-06-15T02:47:36.931Z,24.2
2019-06-15T02:57:36.160Z,24.1
2019-06-15T03:07:35.405Z,24.1
2019-06-15T03:17:34.641Z,24
2019-06-15T03:27:33.875Z,23.9
2019-06-15T03:37:33.109Z,23.9
2019-06-15T03:47:32.349Z,23.9
2019-06-15T03:57:31.588Z,24
2019-06-15T04:07:30.822Z,24.1
2019-06-15T04:17:30.056Z,24.2
2019-06-15T04:27:29.293Z,24.4
2019-06-15T04:37:28.532Z,24.6
2019-06-15T04:47:27.770Z,24.8
2019-06-15T04:57:27.015Z,24.9
2019-06-15T05:07:26.237Z,25.1
2019-06-15T05:17:25.479Z,25.3
2019-06-15T05:27:24.714Z,25.5
2019-06-15T05:37:23.957Z,25.8
2019-06-15T05:47:23.196Z,26.1
2019-06-15T05:57:22.434Z,26.7
2019-06-15T06:07:21.725Z,26.1
2019-06-15T06:17:20.910Z,25.6
2019-06-15T06:27:20.146Z,26.2
2019-06-15T06:37:19.385Z,25.8
2019-06-15T06:47:18.678Z,25.8
2019-06-15T06:57:17.868Z,25.8
2019-06-15T07:07:17.158Z,25.9
2019-06-15T07:17:16.363Z,26.4
2019-06-15T07:27:15.584Z,26.8
2019-06-15T07:37:14.821Z,26.9
2019-06-15T07:47:14.057Z,26.3
2019-06-15T07:57:13.303Z,27.3
2019-06-15T08:07:12.537Z,26.2
2019-06-15T08:17:11.825Z,26.8
2019-06-15T08:27:11.020Z,26.6
2019-06-15T08:37:10.263Z,26.6
2019-06-15T08:47:09.561Z,26.3
2019-06-15T08:57:08.789Z,26.9
2019-06-15T09:07:08.032Z,26.2
2019-06-15T09:17:07.267Z,26.6
2019-06-15T09:27:06.471Z,27.4
2019-06-15T09:37:05.707Z,26.4
2019-06-15T09:47:04.944Z,26.5
2019-06-15T09:57:04.177Z,26.6
2019-06-15T10:07:03.422Z,27.3
2019-06-15T10:17:02.672Z,26.5
2019-06-15T10:27:01.952Z,27
2019-06-15T10:37:01.217Z,27.3
2019-06-15T10:47:00.385Z,26.5
2019-06-15T10:56:59.671Z,27
2019-06-15T11:06:58.915Z,26.5
2019-06-15T11:16:58.102Z,26.8
2019-06-15T11:26:57.399Z,26.7
2019-06-15T11:36:56.590Z,27.1
2019-06-15T11:46:55.824Z,26.6
2019-06-15T11:56:55.064Z,26.6
2019-06-15T12:06:54.312Z,26.9
2019-06-15T12:16:53.595Z,26.8
2019-06-15T12:26:52.788Z,26.6
2019-06-15T12:36:52.029Z,27
2019-06-15T12:46:51.319Z,27
2019-06-15T12:56:50.507Z,26.5
2019-06-15T13:06:49.753Z,27
2019-06-15T13:16:49.092Z,26.4
2019-06-15T13:26:48.278Z,26.8
2019-06-15T13:36:47.522Z,26.9
2019-06-15T13:46:46.712Z,26.3
2019-06-15T13:56:45.955Z,26.4
2019-06-15T14:06:45.243Z,26.4
2019-06-15T14:16:44.487Z,26.4
2019-06-15T14:26:43.735Z,26.6
2019-06-15T14:36:42.961Z,26.6
2019-06-15T14:46:42.157Z,26.7
2019-06-15T14:56:41.393Z,26.6
2019-06-15T15:06:40.680Z,26.6
2019-06-15T15:16:39.921Z,26.6
2019-06-15T15:26:39.168Z,26.5
2019-06-15T15:36:38.352Z,26.4
2019-06-15T15:46:37.640Z,26.5
2019-06-15T15:56:36.880Z,26.9
2019-06-15T16:06:36.328Z,26.4
2019-06-15T16:16:36.459Z,26.9
2019-06-15T16:26:37.334Z,26.8
2019-06-15T16:36:36.296Z,26.4
2019-06-15T16:46:33.037Z,26.9
2019-06-15T16:56:32.324Z,26.3
2019-06-15T17:06:31.527Z,26.9
2019-06-15T17:16:30.755Z,26.6
2019-06-15T17:26:30.044Z,26
2019-06-15T17:36:29.287Z,26.7
2019-06-15T17:46:29.857Z,26.1
2019-06-15T17:56:27.716Z,26.6
2019-06-15T18:06:27.095Z,26.1
2019-06-15T18:16:29.621Z,26.6
2019-06-15T18:26:26.735Z,26.1
2019-06-15T18:36:26.519Z,26.6
2019-06-15T18:46:23.909Z,26.3
2019-06-15T18:56:23.150Z,26.4
2019-06-15T19:06:22.387Z,26.3
2019-06-15T19:16:21.630Z,26
2019-06-15T19:26:20.879Z,25.8
2019-06-15T19:36:20.111Z,25.8
2019-06-15T19:46:19.361Z,25.7
2019-06-15T19:56:18.649Z,25.8
2019-06-15T20:06:17.834Z,25.8
2019-06-15T20:16:17.125Z,25.8
2019-06-15T20:26:16.315Z,25.8
2019-06-15T20:36:16.062Z,25.9
2019-06-15T20:46:17.047Z,25.9
2019-06-15T20:56:14.043Z,26
2019-06-15T21:08:00.265Z,26
2019-06-15T21:17:59.445Z,26.1
2019-06-15T21:27:58.684Z,26.1
2019-06-15T21:37:57.924Z,26.1
2019-06-15T21:47:57.162Z,26
2019-06-15T21:57:56.534Z,26
2019-06-15T22:07:56.708Z,25.9
2019-06-15T22:17:54.964Z,25.9
2019-06-15T22:27:56.143Z,25.9
2019-06-15T22:37:56.095Z,25.9
2019-06-15T22:47:52.908Z,25.8
2019-06-15T22:57:52.225Z,25.8
2019-06-15T23:07:51.502Z,25.7
2019-06-15T23:17:50.737Z,25.7
2019-06-15T23:27:49.975Z,25.6
2019-06-15T23:37:49.213Z,25.6
2019-06-15T23:47:48.456Z,25.5
2019-06-15T23:57:47.707Z,25.4
